<?xml version="1.0" encoding="UTF-8" standalone="no" ?>
<gpx xmlns="http://www.topografix.com/GPX/1/1" xmlns:xsi="http://www.w3.org/2001/XMLSchema-instance" xsi:schemaLocation="http://www.topografix.com/GPX/1/1 http://www.topografix.com/GPX/1/1/gpx.xsd" version="1.1" creator="VisuGPX - https://www.visugpx.com">
  <metadata>
    <name>VacancesDricouZoe</name>
  </metadata>
  <trk>
    <name><![CDATA[Journal actif: 2021-07-04 13:35]]></name>
    <trkseg>
      <trkpt lat="43.50706" lon="-1.53419">
        <ele>5.42</ele>
        <time>2021-07-04T15:35:04Z</time>
      </trkpt>
      <trkpt lat="43.50706" lon="-1.53419">
        <ele>3.5</ele>
        <time>2021-07-04T15:35:20Z</time>
      </trkpt>
      <trkpt lat="43.50706" lon="-1.53419">
        <ele>2.06</ele>
        <time>2021-07-04T15:35:39Z</time>
      </trkpt>
      <trkpt lat="43.50706" lon="-1.53419">
        <ele>1.58</ele>
        <time>2021-07-04T15:36:04Z</time>
      </trkpt>
      <trkpt lat="43.50706" lon="-1.53419">
        <ele>1.1</ele>
        <time>2021-07-04T15:36:23Z</time>
      </trkpt>
      <trkpt lat="43.5067" lon="-1.53381">
        <ele>1.58</ele>
        <time>2021-07-04T15:36:32Z</time>
      </trkpt>
      <trkpt lat="43.50608" lon="-1.53422">
        <ele>2.54</ele>
        <time>2021-07-04T15:36:42Z</time>
      </trkpt>
      <trkpt lat="43.50516" lon="-1.53487">
        <ele>3.02</ele>
        <time>2021-07-04T15:36:58Z</time>
      </trkpt>
      <trkpt lat="43.50413" lon="-1.53571">
        <ele>3.98</ele>
        <time>2021-07-04T15:37:11Z</time>
      </trkpt>
      <trkpt lat="43.50332" lon="-1.53631">
        <ele>3.02</ele>
        <time>2021-07-04T15:37:23Z</time>
      </trkpt>
      <trkpt lat="43.50325" lon="-1.5365">
        <ele>2.54</ele>
        <time>2021-07-04T15:37:28Z</time>
      </trkpt>
      <trkpt lat="43.50322" lon="-1.53652">
        <ele>2.54</ele>
        <time>2021-07-04T15:37:29Z</time>
      </trkpt>
      <trkpt lat="43.50283" lon="-1.53672">
        <ele>3.02</ele>
        <time>2021-07-04T15:37:39Z</time>
      </trkpt>
      <trkpt lat="43.50198" lon="-1.53737">
        <ele>3.5</ele>
        <time>2021-07-04T15:37:54Z</time>
      </trkpt>
      <trkpt lat="43.50143" lon="-1.53789">
        <ele>3.5</ele>
        <time>2021-07-04T15:38:08Z</time>
      </trkpt>
      <trkpt lat="43.5011" lon="-1.5384">
        <ele>2.54</ele>
        <time>2021-07-04T15:38:19Z</time>
      </trkpt>
      <trkpt lat="43.50103" lon="-1.53849">
        <ele>2.54</ele>
        <time>2021-07-04T15:38:21Z</time>
      </trkpt>
      <trkpt lat="43.50103" lon="-1.53849">
        <ele>2.54</ele>
        <time>2021-07-04T15:38:22Z</time>
      </trkpt>
      <trkpt lat="43.50099" lon="-1.53852">
        <ele>3.02</ele>
        <time>2021-07-04T15:38:23Z</time>
      </trkpt>
      <trkpt lat="43.50099" lon="-1.53852">
        <ele>3.02</ele>
        <time>2021-07-04T15:38:24Z</time>
      </trkpt>
      <trkpt lat="43.50085" lon="-1.53848">
        <ele>3.5</ele>
        <time>2021-07-04T15:38:25Z</time>
      </trkpt>
      <trkpt lat="43.50078" lon="-1.53858">
        <ele>3.5</ele>
        <time>2021-07-04T15:38:26Z</time>
      </trkpt>
      <trkpt lat="43.50078" lon="-1.53858">
        <ele>3.98</ele>
        <time>2021-07-04T15:38:27Z</time>
      </trkpt>
      <trkpt lat="43.50025" lon="-1.5392">
        <ele>7.83</ele>
        <time>2021-07-04T15:38:36Z</time>
      </trkpt>
      <trkpt lat="43.50021" lon="-1.53929">
        <ele>8.31</ele>
        <time>2021-07-04T15:38:37Z</time>
      </trkpt>
      <trkpt lat="43.50016" lon="-1.53938">
        <ele>8.79</ele>
        <time>2021-07-04T15:38:38Z</time>
      </trkpt>
      <trkpt lat="43.50012" lon="-1.53946">
        <ele>9.27</ele>
        <time>2021-07-04T15:38:39Z</time>
      </trkpt>
      <trkpt lat="43.50009" lon="-1.53956">
        <ele>10.23</ele>
        <time>2021-07-04T15:38:40Z</time>
      </trkpt>
      <trkpt lat="43.50006" lon="-1.53966">
        <ele>10.71</ele>
        <time>2021-07-04T15:38:41Z</time>
      </trkpt>
      <trkpt lat="43.5" lon="-1.53985">
        <ele>11.67</ele>
        <time>2021-07-04T15:38:43Z</time>
      </trkpt>
      <trkpt lat="43.49997" lon="-1.53994">
        <ele>12.15</ele>
        <time>2021-07-04T15:38:44Z</time>
      </trkpt>
      <trkpt lat="43.49994" lon="-1.54003">
        <ele>12.15</ele>
        <time>2021-07-04T15:38:45Z</time>
      </trkpt>
      <trkpt lat="43.49992" lon="-1.54012">
        <ele>12.63</ele>
        <time>2021-07-04T15:38:46Z</time>
      </trkpt>
      <trkpt lat="43.49987" lon="-1.54017">
        <ele>12.63</ele>
        <time>2021-07-04T15:38:47Z</time>
      </trkpt>
      <trkpt lat="43.49982" lon="-1.54022">
        <ele>12.63</ele>
        <time>2021-07-04T15:38:48Z</time>
      </trkpt>
      <trkpt lat="43.49977" lon="-1.54027">
        <ele>12.63</ele>
        <time>2021-07-04T15:38:49Z</time>
      </trkpt>
      <trkpt lat="43.49973" lon="-1.54032">
        <ele>13.12</ele>
        <time>2021-07-04T15:38:50Z</time>
      </trkpt>
      <trkpt lat="43.49968" lon="-1.54036">
        <ele>13.12</ele>
        <time>2021-07-04T15:38:51Z</time>
      </trkpt>
      <trkpt lat="43.49963" lon="-1.5405">
        <ele>13.12</ele>
        <time>2021-07-04T15:38:56Z</time>
      </trkpt>
      <trkpt lat="43.49962" lon="-1.54059">
        <ele>12.63</ele>
        <time>2021-07-04T15:38:57Z</time>
      </trkpt>
      <trkpt lat="43.49962" lon="-1.54059">
        <ele>12.63</ele>
        <time>2021-07-04T15:38:58Z</time>
      </trkpt>
      <trkpt lat="43.49957" lon="-1.54064">
        <ele>12.63</ele>
        <time>2021-07-04T15:38:59Z</time>
      </trkpt>
      <trkpt lat="43.49951" lon="-1.54064">
        <ele>13.12</ele>
        <time>2021-07-04T15:39:00Z</time>
      </trkpt>
      <trkpt lat="43.49947" lon="-1.54064">
        <ele>13.12</ele>
        <time>2021-07-04T15:39:01Z</time>
      </trkpt>
      <trkpt lat="43.49944" lon="-1.5406">
        <ele>13.12</ele>
        <time>2021-07-04T15:39:02Z</time>
      </trkpt>
      <trkpt lat="43.49944" lon="-1.5406">
        <ele>13.12</ele>
        <time>2021-07-04T15:39:03Z</time>
      </trkpt>
      <trkpt lat="43.49942" lon="-1.54058">
        <ele>13.6</ele>
        <time>2021-07-04T15:39:04Z</time>
      </trkpt>
      <trkpt lat="43.49929" lon="-1.54035">
        <ele>14.56</ele>
        <time>2021-07-04T15:39:08Z</time>
      </trkpt>
      <trkpt lat="43.49922" lon="-1.54024">
        <ele>14.56</ele>
        <time>2021-07-04T15:39:09Z</time>
      </trkpt>
      <trkpt lat="43.49922" lon="-1.54024">
        <ele>15.04</ele>
        <time>2021-07-04T15:39:10Z</time>
      </trkpt>
      <trkpt lat="43.49914" lon="-1.53999">
        <ele>16</ele>
        <time>2021-07-04T15:39:12Z</time>
      </trkpt>
      <trkpt lat="43.49914" lon="-1.53999">
        <ele>16</ele>
        <time>2021-07-04T15:39:13Z</time>
      </trkpt>
      <trkpt lat="43.49911" lon="-1.53991">
        <ele>16.48</ele>
        <time>2021-07-04T15:39:14Z</time>
      </trkpt>
      <trkpt lat="43.49906" lon="-1.53967">
        <ele>16.96</ele>
        <time>2021-07-04T15:39:17Z</time>
      </trkpt>
      <trkpt lat="43.49904" lon="-1.53959">
        <ele>17.44</ele>
        <time>2021-07-04T15:39:18Z</time>
      </trkpt>
      <trkpt lat="43.49901" lon="-1.53952">
        <ele>17.44</ele>
        <time>2021-07-04T15:39:19Z</time>
      </trkpt>
      <trkpt lat="43.49898" lon="-1.53943">
        <ele>17.92</ele>
        <time>2021-07-04T15:39:20Z</time>
      </trkpt>
      <trkpt lat="43.49895" lon="-1.53935">
        <ele>17.92</ele>
        <time>2021-07-04T15:39:21Z</time>
      </trkpt>
      <trkpt lat="43.49888" lon="-1.53919">
        <ele>17.92</ele>
        <time>2021-07-04T15:39:22Z</time>
      </trkpt>
      <trkpt lat="43.49888" lon="-1.53919">
        <ele>17.92</ele>
        <time>2021-07-04T15:39:23Z</time>
      </trkpt>
      <trkpt lat="43.49861" lon="-1.5388">
        <ele>17.92</ele>
        <time>2021-07-04T15:39:29Z</time>
      </trkpt>
      <trkpt lat="43.49856" lon="-1.53874">
        <ele>17.92</ele>
        <time>2021-07-04T15:39:30Z</time>
      </trkpt>
      <trkpt lat="43.49852" lon="-1.53871">
        <ele>17.92</ele>
        <time>2021-07-04T15:39:31Z</time>
      </trkpt>
      <trkpt lat="43.49847" lon="-1.5387">
        <ele>18.88</ele>
        <time>2021-07-04T15:39:32Z</time>
      </trkpt>
      <trkpt lat="43.4984" lon="-1.53869">
        <ele>19.36</ele>
        <time>2021-07-04T15:39:33Z</time>
      </trkpt>
      <trkpt lat="43.49778" lon="-1.53859">
        <ele>21.77</ele>
        <time>2021-07-04T15:39:43Z</time>
      </trkpt>
      <trkpt lat="43.49726" lon="-1.53854">
        <ele>23.21</ele>
        <time>2021-07-04T15:39:52Z</time>
      </trkpt>
      <trkpt lat="43.49721" lon="-1.53854">
        <ele>23.21</ele>
        <time>2021-07-04T15:39:53Z</time>
      </trkpt>
      <trkpt lat="43.49715" lon="-1.5385">
        <ele>23.21</ele>
        <time>2021-07-04T15:39:54Z</time>
      </trkpt>
      <trkpt lat="43.4971" lon="-1.53847">
        <ele>23.69</ele>
        <time>2021-07-04T15:39:55Z</time>
      </trkpt>
      <trkpt lat="43.49698" lon="-1.53841">
        <ele>23.69</ele>
        <time>2021-07-04T15:39:56Z</time>
      </trkpt>
      <trkpt lat="43.49681" lon="-1.53832">
        <ele>24.65</ele>
        <time>2021-07-04T15:40:01Z</time>
      </trkpt>
      <trkpt lat="43.4967" lon="-1.53839">
        <ele>24.17</ele>
        <time>2021-07-04T15:40:02Z</time>
      </trkpt>
      <trkpt lat="43.49671" lon="-1.53836">
        <ele>24.17</ele>
        <time>2021-07-04T15:40:03Z</time>
      </trkpt>
      <trkpt lat="43.49668" lon="-1.53839">
        <ele>24.17</ele>
        <time>2021-07-04T15:40:04Z</time>
      </trkpt>
      <trkpt lat="43.49665" lon="-1.5384">
        <ele>24.17</ele>
        <time>2021-07-04T15:40:05Z</time>
      </trkpt>
      <trkpt lat="43.4966" lon="-1.53844">
        <ele>24.17</ele>
        <time>2021-07-04T15:40:06Z</time>
      </trkpt>
      <trkpt lat="43.49658" lon="-1.53849">
        <ele>24.17</ele>
        <time>2021-07-04T15:40:07Z</time>
      </trkpt>
      <trkpt lat="43.49624" lon="-1.53934">
        <ele>25.13</ele>
        <time>2021-07-04T15:40:17Z</time>
      </trkpt>
      <trkpt lat="43.49539" lon="-1.54147">
        <ele>35.71</ele>
        <time>2021-07-04T15:40:38Z</time>
      </trkpt>
      <trkpt lat="43.49508" lon="-1.54227">
        <ele>36.19</ele>
        <time>2021-07-04T15:40:49Z</time>
      </trkpt>
      <trkpt lat="43.49482" lon="-1.54289">
        <ele>37.63</ele>
        <time>2021-07-04T15:41:01Z</time>
      </trkpt>
      <trkpt lat="43.4945" lon="-1.54369">
        <ele>39.55</ele>
        <time>2021-07-04T15:41:17Z</time>
      </trkpt>
      <trkpt lat="43.49444" lon="-1.54383">
        <ele>39.07</ele>
        <time>2021-07-04T15:41:27Z</time>
      </trkpt>
      <trkpt lat="43.49423" lon="-1.54362">
        <ele>-0.82</ele>
        <time>2021-07-04T16:37:30Z</time>
      </trkpt>
      <trkpt lat="43.49444" lon="-1.54385">
        <ele>46.76</ele>
        <time>2021-07-04T16:38:07Z</time>
      </trkpt>
      <trkpt lat="43.49444" lon="-1.54386">
        <ele>46.76</ele>
        <time>2021-07-04T16:38:10Z</time>
      </trkpt>
      <trkpt lat="43.4943" lon="-1.54415">
        <ele>45.8</ele>
        <time>2021-07-04T16:38:22Z</time>
      </trkpt>
      <trkpt lat="43.49396" lon="-1.5448">
        <ele>43.4</ele>
        <time>2021-07-04T16:38:38Z</time>
      </trkpt>
      <trkpt lat="43.49346" lon="-1.54569">
        <ele>42.44</ele>
        <time>2021-07-04T16:38:52Z</time>
      </trkpt>
      <trkpt lat="43.49298" lon="-1.5466">
        <ele>42.44</ele>
        <time>2021-07-04T16:39:07Z</time>
      </trkpt>
      <trkpt lat="43.49261" lon="-1.54742">
        <ele>41.95</ele>
        <time>2021-07-04T16:39:22Z</time>
      </trkpt>
      <trkpt lat="43.49259" lon="-1.5475">
        <ele>41.95</ele>
        <time>2021-07-04T16:39:23Z</time>
      </trkpt>
      <trkpt lat="43.49238" lon="-1.54913">
        <ele>40.51</ele>
        <time>2021-07-04T16:39:38Z</time>
      </trkpt>
      <trkpt lat="43.49223" lon="-1.55037">
        <ele>39.07</ele>
        <time>2021-07-04T16:39:54Z</time>
      </trkpt>
      <trkpt lat="43.49206" lon="-1.55116">
        <ele>37.63</ele>
        <time>2021-07-04T16:40:05Z</time>
      </trkpt>
      <trkpt lat="43.49185" lon="-1.55152">
        <ele>36.67</ele>
        <time>2021-07-04T16:40:12Z</time>
      </trkpt>
      <trkpt lat="43.49182" lon="-1.55156">
        <ele>36.19</ele>
        <time>2021-07-04T16:40:13Z</time>
      </trkpt>
      <trkpt lat="43.49158" lon="-1.55181">
        <ele>35.23</ele>
        <time>2021-07-04T16:40:19Z</time>
      </trkpt>
      <trkpt lat="43.49158" lon="-1.55181">
        <ele>35.23</ele>
        <time>2021-07-04T16:40:20Z</time>
      </trkpt>
      <trkpt lat="43.49138" lon="-1.55198">
        <ele>34.26</ele>
        <time>2021-07-04T16:40:25Z</time>
      </trkpt>
      <trkpt lat="43.49133" lon="-1.55201">
        <ele>33.78</ele>
        <time>2021-07-04T16:40:26Z</time>
      </trkpt>
      <trkpt lat="43.49124" lon="-1.55203">
        <ele>33.78</ele>
        <time>2021-07-04T16:40:27Z</time>
      </trkpt>
      <trkpt lat="43.49119" lon="-1.55203">
        <ele>33.78</ele>
        <time>2021-07-04T16:40:28Z</time>
      </trkpt>
      <trkpt lat="43.49114" lon="-1.55204">
        <ele>33.3</ele>
        <time>2021-07-04T16:40:29Z</time>
      </trkpt>
      <trkpt lat="43.49114" lon="-1.55204">
        <ele>33.3</ele>
        <time>2021-07-04T16:40:30Z</time>
      </trkpt>
      <trkpt lat="43.49105" lon="-1.55205">
        <ele>32.82</ele>
        <time>2021-07-04T16:40:31Z</time>
      </trkpt>
      <trkpt lat="43.49041" lon="-1.55225">
        <ele>32.34</ele>
        <time>2021-07-04T16:40:44Z</time>
      </trkpt>
      <trkpt lat="43.48964" lon="-1.55261">
        <ele>28.98</ele>
        <time>2021-07-04T16:41:02Z</time>
      </trkpt>
      <trkpt lat="43.48946" lon="-1.55269">
        <ele>27.05</ele>
        <time>2021-07-04T16:41:11Z</time>
      </trkpt>
      <trkpt lat="43.48903" lon="-1.5529">
        <ele>23.21</ele>
        <time>2021-07-04T16:41:26Z</time>
      </trkpt>
      <trkpt lat="43.48779" lon="-1.55364">
        <ele>13.12</ele>
        <time>2021-07-04T16:41:51Z</time>
      </trkpt>
      <trkpt lat="43.48713" lon="-1.55454">
        <ele>8.79</ele>
        <time>2021-07-04T16:42:07Z</time>
      </trkpt>
      <trkpt lat="43.48651" lon="-1.55523">
        <ele>3.5</ele>
        <time>2021-07-04T16:42:24Z</time>
      </trkpt>
      <trkpt lat="43.48581" lon="-1.55553">
        <ele>-1.3</ele>
        <time>2021-07-04T16:42:42Z</time>
      </trkpt>
      <trkpt lat="43.48563" lon="-1.55578">
        <ele>-2.27</ele>
        <time>2021-07-04T16:42:55Z</time>
      </trkpt>
      <trkpt lat="43.48551" lon="-1.55597">
        <ele>-2.27</ele>
        <time>2021-07-04T16:43:12Z</time>
      </trkpt>
      <trkpt lat="43.48517" lon="-1.55654">
        <ele>-0.82</ele>
        <time>2021-07-04T16:43:25Z</time>
      </trkpt>
      <trkpt lat="43.48492" lon="-1.5569">
        <ele>0.14</ele>
        <time>2021-07-04T16:43:32Z</time>
      </trkpt>
      <trkpt lat="43.48448" lon="-1.5573">
        <ele>1.1</ele>
        <time>2021-07-04T16:43:43Z</time>
      </trkpt>
      <trkpt lat="43.48408" lon="-1.55783">
        <ele>7.83</ele>
        <time>2021-07-04T16:43:59Z</time>
      </trkpt>
      <trkpt lat="43.48379" lon="-1.55829">
        <ele>13.12</ele>
        <time>2021-07-04T16:44:10Z</time>
      </trkpt>
      <trkpt lat="43.48333" lon="-1.55875">
        <ele>18.4</ele>
        <time>2021-07-04T16:44:21Z</time>
      </trkpt>
      <trkpt lat="43.4833" lon="-1.55877">
        <ele>18.88</ele>
        <time>2021-07-04T16:44:22Z</time>
      </trkpt>
      <trkpt lat="43.48321" lon="-1.55878">
        <ele>19.36</ele>
        <time>2021-07-04T16:44:23Z</time>
      </trkpt>
      <trkpt lat="43.48317" lon="-1.55879">
        <ele>19.36</ele>
        <time>2021-07-04T16:44:24Z</time>
      </trkpt>
      <trkpt lat="43.48317" lon="-1.55879">
        <ele>19.84</ele>
        <time>2021-07-04T16:44:25Z</time>
      </trkpt>
      <trkpt lat="43.48247" lon="-1.55888">
        <ele>19.36</ele>
        <time>2021-07-04T16:44:40Z</time>
      </trkpt>
      <trkpt lat="43.4824" lon="-1.55891">
        <ele>19.84</ele>
        <time>2021-07-04T16:45:55Z</time>
      </trkpt>
      <trkpt lat="43.48204" lon="-1.55919">
        <ele>20.81</ele>
        <time>2021-07-04T16:46:04Z</time>
      </trkpt>
      <trkpt lat="43.48204" lon="-1.55919">
        <ele>20.81</ele>
        <time>2021-07-04T16:46:05Z</time>
      </trkpt>
      <trkpt lat="43.48189" lon="-1.55933">
        <ele>20.81</ele>
        <time>2021-07-04T16:46:09Z</time>
      </trkpt>
      <trkpt lat="43.48189" lon="-1.55933">
        <ele>20.81</ele>
        <time>2021-07-04T16:46:10Z</time>
      </trkpt>
      <trkpt lat="43.48189" lon="-1.55937">
        <ele>20.81</ele>
        <time>2021-07-04T16:46:11Z</time>
      </trkpt>
      <trkpt lat="43.4819" lon="-1.55941">
        <ele>21.29</ele>
        <time>2021-07-04T16:46:12Z</time>
      </trkpt>
      <trkpt lat="43.48191" lon="-1.55945">
        <ele>21.77</ele>
        <time>2021-07-04T16:46:13Z</time>
      </trkpt>
      <trkpt lat="43.48192" lon="-1.55949">
        <ele>22.25</ele>
        <time>2021-07-04T16:46:14Z</time>
      </trkpt>
      <trkpt lat="43.48203" lon="-1.56">
        <ele>27.53</ele>
        <time>2021-07-04T16:46:23Z</time>
      </trkpt>
      <trkpt lat="43.48212" lon="-1.56037">
        <ele>28.5</ele>
        <time>2021-07-04T16:46:29Z</time>
      </trkpt>
      <trkpt lat="43.48222" lon="-1.56091">
        <ele>31.38</ele>
        <time>2021-07-04T16:46:40Z</time>
      </trkpt>
      <trkpt lat="43.48229" lon="-1.56126">
        <ele>34.26</ele>
        <time>2021-07-04T16:46:51Z</time>
      </trkpt>
      <trkpt lat="43.48222" lon="-1.56173">
        <ele>36.19</ele>
        <time>2021-07-04T16:47:02Z</time>
      </trkpt>
      <trkpt lat="43.48214" lon="-1.56217">
        <ele>37.15</ele>
        <time>2021-07-04T16:47:16Z</time>
      </trkpt>
      <trkpt lat="43.48208" lon="-1.56239">
        <ele>39.55</ele>
        <time>2021-07-04T16:47:21Z</time>
      </trkpt>
      <trkpt lat="43.48206" lon="-1.56244">
        <ele>39.55</ele>
        <time>2021-07-04T16:47:22Z</time>
      </trkpt>
      <trkpt lat="43.48203" lon="-1.56249">
        <ele>39.55</ele>
        <time>2021-07-04T16:47:23Z</time>
      </trkpt>
      <trkpt lat="43.48199" lon="-1.56259">
        <ele>39.55</ele>
        <time>2021-07-04T16:47:25Z</time>
      </trkpt>
      <trkpt lat="43.48161" lon="-1.56297">
        <ele>40.03</ele>
        <time>2021-07-04T16:47:37Z</time>
      </trkpt>
      <trkpt lat="43.48132" lon="-1.56302">
        <ele>40.51</ele>
        <time>2021-07-04T16:47:45Z</time>
      </trkpt>
      <trkpt lat="43.4807" lon="-1.56326">
        <ele>38.11</ele>
        <time>2021-07-04T16:48:01Z</time>
      </trkpt>
      <trkpt lat="43.48029" lon="-1.56359">
        <ele>36.67</ele>
        <time>2021-07-04T16:48:12Z</time>
      </trkpt>
      <trkpt lat="43.4799" lon="-1.56394">
        <ele>31.38</ele>
        <time>2021-07-04T16:48:22Z</time>
      </trkpt>
      <trkpt lat="43.47932" lon="-1.56424">
        <ele>28.98</ele>
        <time>2021-07-04T16:48:38Z</time>
      </trkpt>
      <trkpt lat="43.47905" lon="-1.56446">
        <ele>35.71</ele>
        <time>2021-07-04T16:48:46Z</time>
      </trkpt>
      <trkpt lat="43.47885" lon="-1.56463">
        <ele>38.59</ele>
        <time>2021-07-04T16:48:56Z</time>
      </trkpt>
      <trkpt lat="43.47885" lon="-1.56463">
        <ele>39.07</ele>
        <time>2021-07-04T16:49:00Z</time>
      </trkpt>
      <trkpt lat="43.4788" lon="-1.56472">
        <ele>39.07</ele>
        <time>2021-07-04T16:49:01Z</time>
      </trkpt>
      <trkpt lat="43.47871" lon="-1.56492">
        <ele>40.99</ele>
        <time>2021-07-04T16:49:07Z</time>
      </trkpt>
      <trkpt lat="43.47851" lon="-1.56488">
        <ele>41.47</ele>
        <time>2021-07-04T16:49:11Z</time>
      </trkpt>
      <trkpt lat="43.47778" lon="-1.56521">
        <ele>41.95</ele>
        <time>2021-07-04T16:49:24Z</time>
      </trkpt>
      <trkpt lat="43.47758" lon="-1.56538">
        <ele>41.95</ele>
        <time>2021-07-04T16:49:28Z</time>
      </trkpt>
      <trkpt lat="43.47752" lon="-1.56539">
        <ele>41.95</ele>
        <time>2021-07-04T16:49:29Z</time>
      </trkpt>
      <trkpt lat="43.47741" lon="-1.56543">
        <ele>41.95</ele>
        <time>2021-07-04T16:49:30Z</time>
      </trkpt>
      <trkpt lat="43.47741" lon="-1.56543">
        <ele>42.44</ele>
        <time>2021-07-04T16:49:31Z</time>
      </trkpt>
      <trkpt lat="43.47736" lon="-1.56544">
        <ele>41.95</ele>
        <time>2021-07-04T16:49:32Z</time>
      </trkpt>
      <trkpt lat="43.47731" lon="-1.56546">
        <ele>41.95</ele>
        <time>2021-07-04T16:49:33Z</time>
      </trkpt>
      <trkpt lat="43.47726" lon="-1.56547">
        <ele>42.44</ele>
        <time>2021-07-04T16:49:34Z</time>
      </trkpt>
      <trkpt lat="43.47721" lon="-1.56548">
        <ele>42.92</ele>
        <time>2021-07-04T16:49:35Z</time>
      </trkpt>
      <trkpt lat="43.47716" lon="-1.5655">
        <ele>43.4</ele>
        <time>2021-07-04T16:49:36Z</time>
      </trkpt>
      <trkpt lat="43.47712" lon="-1.56555">
        <ele>43.4</ele>
        <time>2021-07-04T16:49:37Z</time>
      </trkpt>
      <trkpt lat="43.47706" lon="-1.5656">
        <ele>43.88</ele>
        <time>2021-07-04T16:49:38Z</time>
      </trkpt>
      <trkpt lat="43.477" lon="-1.5656">
        <ele>43.88</ele>
        <time>2021-07-04T16:49:39Z</time>
      </trkpt>
      <trkpt lat="43.47639" lon="-1.56586">
        <ele>45.32</ele>
        <time>2021-07-04T16:49:51Z</time>
      </trkpt>
      <trkpt lat="43.47526" lon="-1.56623">
        <ele>43.88</ele>
        <time>2021-07-04T16:50:07Z</time>
      </trkpt>
      <trkpt lat="43.47446" lon="-1.56653">
        <ele>44.84</ele>
        <time>2021-07-04T16:50:19Z</time>
      </trkpt>
      <trkpt lat="43.47347" lon="-1.56668">
        <ele>47.24</ele>
        <time>2021-07-04T16:50:33Z</time>
      </trkpt>
      <trkpt lat="43.47318" lon="-1.56669">
        <ele>46.76</ele>
        <time>2021-07-04T16:50:38Z</time>
      </trkpt>
      <trkpt lat="43.47316" lon="-1.56669">
        <ele>46.76</ele>
        <time>2021-07-04T16:50:39Z</time>
      </trkpt>
      <trkpt lat="43.4731" lon="-1.56676">
        <ele>46.76</ele>
        <time>2021-07-04T16:50:40Z</time>
      </trkpt>
      <trkpt lat="43.47306" lon="-1.56678">
        <ele>46.28</ele>
        <time>2021-07-04T16:50:41Z</time>
      </trkpt>
      <trkpt lat="43.47301" lon="-1.56678">
        <ele>46.28</ele>
        <time>2021-07-04T16:50:42Z</time>
      </trkpt>
      <trkpt lat="43.47297" lon="-1.56676">
        <ele>45.8</ele>
        <time>2021-07-04T16:50:43Z</time>
      </trkpt>
      <trkpt lat="43.47296" lon="-1.56674">
        <ele>45.8</ele>
        <time>2021-07-04T16:50:44Z</time>
      </trkpt>
      <trkpt lat="43.47294" lon="-1.56669">
        <ele>45.32</ele>
        <time>2021-07-04T16:50:45Z</time>
      </trkpt>
      <trkpt lat="43.47292" lon="-1.56665">
        <ele>45.8</ele>
        <time>2021-07-04T16:50:46Z</time>
      </trkpt>
      <trkpt lat="43.47283" lon="-1.56664">
        <ele>46.28</ele>
        <time>2021-07-04T16:50:47Z</time>
      </trkpt>
      <trkpt lat="43.47279" lon="-1.56666">
        <ele>46.28</ele>
        <time>2021-07-04T16:50:48Z</time>
      </trkpt>
      <trkpt lat="43.47275" lon="-1.56668">
        <ele>46.76</ele>
        <time>2021-07-04T16:50:49Z</time>
      </trkpt>
      <trkpt lat="43.47253" lon="-1.56679">
        <ele>47.72</ele>
        <time>2021-07-04T16:50:52Z</time>
      </trkpt>
      <trkpt lat="43.47253" lon="-1.56679">
        <ele>48.2</ele>
        <time>2021-07-04T16:50:53Z</time>
      </trkpt>
      <trkpt lat="43.47149" lon="-1.56758">
        <ele>53.97</ele>
        <time>2021-07-04T16:51:11Z</time>
      </trkpt>
      <trkpt lat="43.47122" lon="-1.5678">
        <ele>53.01</ele>
        <time>2021-07-04T16:51:16Z</time>
      </trkpt>
      <trkpt lat="43.47117" lon="-1.56787">
        <ele>52.53</ele>
        <time>2021-07-04T16:51:17Z</time>
      </trkpt>
      <trkpt lat="43.47113" lon="-1.56793">
        <ele>52.53</ele>
        <time>2021-07-04T16:51:18Z</time>
      </trkpt>
      <trkpt lat="43.4711" lon="-1.568">
        <ele>53.01</ele>
        <time>2021-07-04T16:51:19Z</time>
      </trkpt>
      <trkpt lat="43.47103" lon="-1.56814">
        <ele>52.53</ele>
        <time>2021-07-04T16:51:20Z</time>
      </trkpt>
      <trkpt lat="43.47091" lon="-1.56833">
        <ele>51.57</ele>
        <time>2021-07-04T16:51:24Z</time>
      </trkpt>
      <trkpt lat="43.47087" lon="-1.56837">
        <ele>51.57</ele>
        <time>2021-07-04T16:51:25Z</time>
      </trkpt>
      <trkpt lat="43.47084" lon="-1.56841">
        <ele>51.57</ele>
        <time>2021-07-04T16:51:26Z</time>
      </trkpt>
      <trkpt lat="43.47019" lon="-1.56896">
        <ele>46.28</ele>
        <time>2021-07-04T16:51:39Z</time>
      </trkpt>
      <trkpt lat="43.46917" lon="-1.56983">
        <ele>30.9</ele>
        <time>2021-07-04T16:51:55Z</time>
      </trkpt>
      <trkpt lat="43.4675" lon="-1.57124">
        <ele>19.36</ele>
        <time>2021-07-04T16:52:15Z</time>
      </trkpt>
      <trkpt lat="43.46665" lon="-1.57202">
        <ele>16.48</ele>
        <time>2021-07-04T16:52:28Z</time>
      </trkpt>
      <trkpt lat="43.46657" lon="-1.57207">
        <ele>16.96</ele>
        <time>2021-07-04T16:52:29Z</time>
      </trkpt>
      <trkpt lat="43.46638" lon="-1.57216">
        <ele>16.48</ele>
        <time>2021-07-04T16:52:31Z</time>
      </trkpt>
      <trkpt lat="43.46621" lon="-1.57224">
        <ele>16.48</ele>
        <time>2021-07-04T16:52:32Z</time>
      </trkpt>
      <trkpt lat="43.46621" lon="-1.57224">
        <ele>17.44</ele>
        <time>2021-07-04T16:52:33Z</time>
      </trkpt>
      <trkpt lat="43.46613" lon="-1.57224">
        <ele>17.44</ele>
        <time>2021-07-04T16:52:34Z</time>
      </trkpt>
      <trkpt lat="43.46593" lon="-1.57221">
        <ele>18.4</ele>
        <time>2021-07-04T16:52:35Z</time>
      </trkpt>
      <trkpt lat="43.46593" lon="-1.57221">
        <ele>18.88</ele>
        <time>2021-07-04T16:52:36Z</time>
      </trkpt>
      <trkpt lat="43.46585" lon="-1.57218">
        <ele>19.84</ele>
        <time>2021-07-04T16:52:37Z</time>
      </trkpt>
      <trkpt lat="43.46576" lon="-1.57213">
        <ele>19.36</ele>
        <time>2021-07-04T16:52:38Z</time>
      </trkpt>
      <trkpt lat="43.46567" lon="-1.57209">
        <ele>19.36</ele>
        <time>2021-07-04T16:52:39Z</time>
      </trkpt>
      <trkpt lat="43.46558" lon="-1.57204">
        <ele>19.36</ele>
        <time>2021-07-04T16:52:40Z</time>
      </trkpt>
      <trkpt lat="43.4655" lon="-1.57199">
        <ele>19.36</ele>
        <time>2021-07-04T16:52:41Z</time>
      </trkpt>
      <trkpt lat="43.4653" lon="-1.57185">
        <ele>19.36</ele>
        <time>2021-07-04T16:52:43Z</time>
      </trkpt>
      <trkpt lat="43.4653" lon="-1.57185">
        <ele>19.84</ele>
        <time>2021-07-04T16:52:44Z</time>
      </trkpt>
      <trkpt lat="43.4652" lon="-1.57189">
        <ele>19.36</ele>
        <time>2021-07-04T16:52:46Z</time>
      </trkpt>
      <trkpt lat="43.46514" lon="-1.57185">
        <ele>18.88</ele>
        <time>2021-07-04T16:52:47Z</time>
      </trkpt>
      <trkpt lat="43.46512" lon="-1.57182">
        <ele>18.88</ele>
        <time>2021-07-04T16:52:48Z</time>
      </trkpt>
      <trkpt lat="43.46509" lon="-1.57178">
        <ele>18.88</ele>
        <time>2021-07-04T16:52:49Z</time>
      </trkpt>
      <trkpt lat="43.46511" lon="-1.57174">
        <ele>18.88</ele>
        <time>2021-07-04T16:52:50Z</time>
      </trkpt>
      <trkpt lat="43.46513" lon="-1.57168">
        <ele>18.4</ele>
        <time>2021-07-04T16:52:51Z</time>
      </trkpt>
      <trkpt lat="43.46514" lon="-1.57167">
        <ele>18.4</ele>
        <time>2021-07-04T16:52:52Z</time>
      </trkpt>
      <trkpt lat="43.46518" lon="-1.57167">
        <ele>18.4</ele>
        <time>2021-07-04T16:52:53Z</time>
      </trkpt>
      <trkpt lat="43.46528" lon="-1.57167">
        <ele>18.4</ele>
        <time>2021-07-04T16:52:54Z</time>
      </trkpt>
      <trkpt lat="43.46528" lon="-1.57167">
        <ele>18.4</ele>
        <time>2021-07-04T16:52:55Z</time>
      </trkpt>
      <trkpt lat="43.46537" lon="-1.57167">
        <ele>18.4</ele>
        <time>2021-07-04T16:52:56Z</time>
      </trkpt>
      <trkpt lat="43.46564" lon="-1.57167">
        <ele>17.92</ele>
        <time>2021-07-04T16:53:08Z</time>
      </trkpt>
      <trkpt lat="43.46564" lon="-1.57167">
        <ele>16</ele>
        <time>2021-07-04T16:54:57Z</time>
      </trkpt>
      <trkpt lat="43.46579" lon="-1.57168">
        <ele>16</ele>
        <time>2021-07-04T16:54:58Z</time>
      </trkpt>
      <trkpt lat="43.4658" lon="-1.57169">
        <ele>16</ele>
        <time>2021-07-04T16:54:59Z</time>
      </trkpt>
      <trkpt lat="43.46582" lon="-1.57169">
        <ele>16</ele>
        <time>2021-07-04T16:55:00Z</time>
      </trkpt>
    </trkseg>
  </trk>
</gpx>